Private Wetterstation Sandau
Wetterdaten: Sonntag, 27.01.2013
Datum Zeit Temp. A. Feuchte A. Luftdruck Regen Wind Richtung Richtung Taupunkt Windchill
27.01.2013 00:01 -3,5 C 89 % 1010,5 hPa 0,0 l/m 11,2 km/h (2 Bft) SW 225 -5,0 C -7,8 C
27.01.2013 00:06 -3,5 C 89 % 1010,5 hPa 0,0 l/m 11,2 km/h (2 Bft) SW 225 -5,0 C -7,8 C
27.01.2013 00:11 -3,5 C 89 % 1010,3 hPa 0,0 l/m 7,6 km/h (2 Bft) SW 225 -5,0 C -6,7 C
27.01.2013 00:16 -3,5 C 89 % 1010,4 hPa 0,0 l/m 10,8 km/h (2 Bft) S-SO 157 -5,0 C -7,7 C
27.01.2013 00:21 -3,5 C 89 % 1010,6 hPa 0,0 l/m 5,8 km/h (2 Bft) S-SW 202 -5,0 C -6,0 C
27.01.2013 00:26 -3,5 C 89 % 1010,4 hPa 0,0 l/m 5,8 km/h (2 Bft) S 180 -5,0 C -6,0 C
27.01.2013 00:31 -3,4 C 89 % 1010,5 hPa 0,0 l/m 10,4 km/h (2 Bft) S-SW 202 -4,9 C -7,5 C
27.01.2013 00:36 -3,4 C 89 % 1010,4 hPa 0,0 l/m 6,8 km/h (2 Bft) W-SW 247 -4,9 C -6,3 C
27.01.2013 00:41 -3,4 C 89 % 1010,4 hPa 0,0 l/m 3,2 km/h (1 Bft) S-SW 202 -4,9 C -3,4 C
27.01.2013 00:46 -3,4 C 89 % 1010,3 hPa 0,0 l/m 19,4 km/h (3 Bft) S-SW 202 -4,9 C -9,4 C
27.01.2013 00:51 -3,3 C 89 % 1010,3 hPa 0,0 l/m 13,7 km/h (3 Bft) SW 225 -4,8 C -8,2 C
27.01.2013 00:56 -3,2 C 89 % 1010,3 hPa 0,0 l/m 14,4 km/h (3 Bft) W-SW 247 -4,7 C -8,2 C
27.01.2013 01:01 -3,2 C 89 % 1010,2 hPa 0,0 l/m 15,8 km/h (3 Bft) SW 225 -4,7 C -8,5 C
27.01.2013 01:06 -3,2 C 89 % 1010,1 hPa 0,0 l/m 7,6 km/h (2 Bft) SW 225 -4,7 C -6,4 C
27.01.2013 01:11 -3,2 C 89 % 1010,3 hPa 0,0 l/m 9,0 km/h (2 Bft) SW 225 -4,7 C -6,8 C
27.01.2013 01:16 -3,1 C 89 % 1010,3 hPa 0,0 l/m 8,3 km/h (2 Bft) SW 225 -4,6 C -6,5 C
27.01.2013 01:21 -3,1 C 89 % 1010,2 hPa 0,0 l/m 13,0 km/h (3 Bft) W-SW 247 -4,6 C -7,8 C
27.01.2013 01:26 -3,1 C 89 % 1010,4 hPa 0,0 l/m 4,0 km/h (1 Bft) W-SW 247 -4,6 C -3,1 C
27.01.2013 01:31 -3,1 C 89 % 1010,4 hPa 0,0 l/m 8,3 km/h (2 Bft) SW 225 -4,6 C -6,5 C
27.01.2013 01:36 -3,1 C 89 % 1010,4 hPa 0,0 l/m 6,8 km/h (2 Bft) SW 225 -4,6 C -5,9 C
27.01.2013 01:41 -3,0 C 89 % 1010,5 hPa 0,0 l/m 6,1 km/h (2 Bft) SW 225 -4,6 C -5,5 C
27.01.2013 01:46 -3,0 C 89 % 1010,2 hPa 0,0 l/m 6,8 km/h (2 Bft) S 180 -4,6 C -5,8 C
27.01.2013 01:51 -2,9 C 88 % 1010,3 hPa 0,0 l/m 8,3 km/h (2 Bft) SW 225 -4,6 C -6,2 C
27.01.2013 01:56 -2,9 C 88 % 1010,3 hPa 0,0 l/m 7,9 km/h (2 Bft) W-SW 247 -4,6 C -6,1 C
27.01.2013 02:01 -2,9 C 88 % 1010,3 hPa 0,0 l/m 3,6 km/h (1 Bft) S-SW 202 -4,6 C -2,9 C
27.01.2013 02:06 -2,8 C 88 % 1010,1 hPa 0,0 l/m 8,3 km/h (2 Bft) W-SW 247 -4,5 C -6,1 C
27.01.2013 02:11 -2,7 C 88 % 1010,2 hPa 0,0 l/m 7,9 km/h (2 Bft) S-SW 202 -4,4 C -5,9 C
27.01.2013 02:16 -2,7 C 88 % 1010,2 hPa 0,0 l/m 11,2 km/h (2 Bft) SW 225 -4,4 C -6,9 C
27.01.2013 02:21 -2,7 C 88 % 1010,0 hPa 0,0 l/m 5,0 km/h (1 Bft) SW 225 -4,4 C -4,7 C
27.01.2013 02:26 -2,6 C 88 % 1010,2 hPa 0,0 l/m 4,0 km/h (1 Bft) S-SW 202 -4,3 C -2,6 C
27.01.2013 02:31 -2,5 C 89 % 1010,2 hPa 0,0 l/m 5,4 km/h (1 Bft) S 180 -4,1 C -4,6 C
27.01.2013 02:36 -2,5 C 89 % 1010,1 hPa 0,0 l/m 4,0 km/h (1 Bft) S-SW 202 -4,1 C -2,5 C
27.01.2013 02:41 -2,4 C 89 % 1010,2 hPa 0,0 l/m 7,6 km/h (2 Bft) W-SW 247 -4,0 C -5,4 C
27.01.2013 02:46 -2,4 C 89 % 1010,2 hPa 0,0 l/m 4,3 km/h (1 Bft) W-SW 247 -4,0 C -2,4 C
27.01.2013 02:51 -2,4 C 89 % 1010,0 hPa 0,0 l/m 5,4 km/h (1 Bft) SW 225 -4,0 C -4,5 C
27.01.2013 02:56 -2,4 C 89 % 1010,1 hPa 0,0 l/m 9,4 km/h (2 Bft) SW 225 -4,0 C -6,0 C
27.01.2013 03:01 -2,4 C 89 % 1010,0 hPa 0,0 l/m 2,9 km/h (1 Bft) S-SW 202 -4,0 C -2,4 C
27.01.2013 03:06 -2,4 C 89 % 1009,9 hPa 0,0 l/m 4,0 km/h (1 Bft) S-SW 202 -4,0 C -2,4 C
27.01.2013 03:11 -2,4 C 89 % 1009,9 hPa 0,0 l/m 9,0 km/h (2 Bft) S-SW 202 -4,0 C -5,9 C
27.01.2013 03:16 -2,4 C 89 % 1010,0 hPa 0,0 l/m 4,0 km/h (1 Bft) S-SW 202 -4,0 C -2,4 C
27.01.2013 03:21 -2,4 C 89 % 1009,9 hPa 0,0 l/m 5,0 km/h (1 Bft) SW 225 -4,0 C -4,3 C
27.01.2013 03:26 -2,2 C 89 % 1009,8 hPa 0,0 l/m 4,3 km/h (1 Bft) W-SW 247 -3,8 C -2,2 C
27.01.2013 03:31 -2,2 C 89 % 1009,8 hPa 0,0 l/m 3,2 km/h (1 Bft) SW 225 -3,8 C -2,2 C
27.01.2013 03:36 -2,2 C 89 % 1009,9 hPa 0,0 l/m 4,7 km/h (1 Bft) S-SW 202 -3,8 C -3,9 C
27.01.2013 03:41 -2,2 C 89 % 1009,8 hPa 0,0 l/m 6,1 km/h (2 Bft) S 180 -3,8 C -4,6 C
27.01.2013 03:46 -2,1 C 89 % 1009,9 hPa 0,0 l/m 1,4 km/h (1 Bft) S-SW 202 -3,7 C -2,1 C
27.01.2013 03:51 -2,1 C 89 % 1009,9 hPa 0,0 l/m 6,5 km/h (2 Bft) SW 225 -3,7 C -4,6 C
27.01.2013 03:56 -2,1 C 89 % 1010,0 hPa 0,0 l/m 0,0 km/h (0 Bft) S-SW 202 -3,7 C -2,1 C
27.01.2013 04:01 -2,1 C 88 % 1009,8 hPa 0,0 l/m 2,5 km/h (1 Bft) SW 225 -3,8 C -2,1 C
27.01.2013 04:06 -2,1 C 88 % 1009,8 hPa 0,0 l/m 3,6 km/h (1 Bft) W-SW 247 -3,8 C -2,1 C
27.01.2013 04:11 -2,0 C 88 % 1009,9 hPa 0,0 l/m 4,3 km/h (1 Bft) W-SW 247 -3,7 C -2,0 C
27.01.2013 04:16 -1,9 C 88 % 1009,9 hPa 0,0 l/m 5,8 km/h (2 Bft) SW 225 -3,6 C -4,1 C
27.01.2013 04:21 -1,9 C 88 % 1009,9 hPa 0,0 l/m 8,3 km/h (2 Bft) W-SW 247 -3,6 C -5,1 C
27.01.2013 04:26 -1,9 C 88 % 1010,0 hPa 0,0 l/m 5,0 km/h (1 Bft) SW 225 -3,6 C -3,7 C
27.01.2013 04:31 -1,9 C 88 % 1010,0 hPa 0,0 l/m 3,2 km/h (1 Bft) SW 225 -3,6 C -1,9 C
27.01.2013 04:36 -1,9 C 88 % 1010,0 hPa 0,0 l/m 4,7 km/h (1 Bft) SW 225 -3,6 C -3,6 C
27.01.2013 04:41 -1,9 C 88 % 1009,9 hPa 0,0 l/m 4,3 km/h (1 Bft) SW 225 -3,6 C -1,9 C
27.01.2013 04:46 -1,9 C 88 % 1009,8 hPa 0,0 l/m 2,2 km/h (1 Bft) S-SO 157 -3,6 C -1,9 C
27.01.2013 04:51 -2,1 C 88 % 1009,8 hPa 0,0 l/m 7,2 km/h (2 Bft) S-SW 202 -3,8 C -4,9 C
27.01.2013 04:56 -2,1 C 88 % 1009,8 hPa 0,0 l/m 1,4 km/h (1 Bft) S-SO 157 -3,8 C -2,1 C
27.01.2013 05:01 -2,1 C 88 % 1009,8 hPa 0,0 l/m 5,0 km/h (1 Bft) S-SW 202 -3,8 C -4,0 C
27.01.2013 05:06 -2,2 C 88 % 1009,7 hPa 0,0 l/m 6,5 km/h (2 Bft) S-SW 202 -3,9 C -4,8 C
27.01.2013 05:11 -2,2 C 88 % 1009,6 hPa 0,0 l/m 3,6 km/h (1 Bft) S-SW 202 -3,9 C -2,2 C
27.01.2013 05:16 -2,2 C 88 % 1009,6 hPa 0,0 l/m 4,7 km/h (1 Bft) S-SW 202 -3,9 C -3,9 C
27.01.2013 05:21 -2,2 C 88 % 1009,6 hPa 0,0 l/m 5,0 km/h (1 Bft) W-SW 247 -3,9 C -4,1 C
27.01.2013 05:26 -2,2 C 88 % 1009,6 hPa 0,0 l/m 4,7 km/h (1 Bft) SW 225 -3,9 C -3,9 C
27.01.2013 05:31 -2,2 C 88 % 1009,4 hPa 0,0 l/m 2,9 km/h (1 Bft) S-SW 202 -3,9 C -2,2 C
27.01.2013 05:36 -2,2 C 88 % 1009,6 hPa 0,0 l/m 4,3 km/h (1 Bft) S 180 -3,9 C -2,2 C
27.01.2013 05:41 -2,2 C 88 % 1009,6 hPa 0,0 l/m 5,8 km/h (2 Bft) S 180 -3,9 C -4,5 C
27.01.2013 05:46 -2,1 C 88 % 1009,6 hPa 0,0 l/m 6,1 km/h (2 Bft) S-SW 202 -3,8 C -4,5 C
27.01.2013 05:51 -2,1 C 88 % 1009,4 hPa 0,0 l/m 9,0 km/h (2 Bft) W-SW 247 -3,8 C -5,5 C
27.01.2013 05:56 -2,1 C 88 % 1009,5 hPa 0,0 l/m 10,1 km/h (2 Bft) S 180 -3,8 C -5,9 C
27.01.2013 06:01 -1,9 C 88 % 1009,2 hPa 0,0 l/m 6,1 km/h (2 Bft) SO 135 -3,6 C -4,3 C
27.01.2013 06:06 -1,9 C 88 % 1009,1 hPa 0,0 l/m 6,1 km/h (2 Bft) S 180 -3,6 C -4,3 C
27.01.2013 06:11 -1,9 C 88 % 1009,2 hPa 0,0 l/m 3,2 km/h (1 Bft) S-SW 202 -3,6 C -1,9 C
27.01.2013 06:16 -1,8 C 88 % 1009,2 hPa 0,0 l/m 1,8 km/h (1 Bft) S-SW 202 -3,5 C -1,8 C
27.01.2013 06:21 -1,8 C 88 % 1009,2 hPa 0,0 l/m 5,4 km/h (1 Bft) S-SW 202 -3,5 C -3,8 C
27.01.2013 06:26 -1,8 C 88 % 1009,0 hPa 0,0 l/m 9,7 km/h (2 Bft) S-SW 202 -3,5 C -5,4 C
27.01.2013 06:31 -1,8 C 88 % 1008,9 hPa 0,0 l/m 3,6 km/h (1 Bft) S-SW 202 -3,5 C -1,8 C
27.01.2013 06:36 -1,8 C 88 % 1009,0 hPa 0,0 l/m 2,5 km/h (1 Bft) S 180 -3,5 C -1,8 C
27.01.2013 06:41 -1,8 C 88 % 1008,9 hPa 0,0 l/m 4,3 km/h (1 Bft) S 180 -3,5 C -1,8 C
27.01.2013 06:46 -1,9 C 88 % 1008,8 hPa 0,0 l/m 5,8 km/h (2 Bft) SW 225 -3,6 C -4,1 C
27.01.2013 06:51 -1,9 C 88 % 1008,8 hPa 0,0 l/m 4,7 km/h (1 Bft) S-SW 202 -3,6 C -3,6 C
27.01.2013 06:56 -1,9 C 88 % 1008,8 hPa 0,0 l/m 3,6 km/h (1 Bft) S 180 -3,6 C -1,9 C
27.01.2013 07:01 -1,9 C 88 % 1008,7 hPa 0,0 l/m 5,8 km/h (2 Bft) W-SW 247 -3,6 C -4,1 C
27.01.2013 07:06 -1,9 C 88 % 1008,5 hPa 0,0 l/m 8,6 km/h (2 Bft) SO 135 -3,6 C -5,2 C
27.01.2013 07:11 -1,9 C 88 % 1008,6 hPa 0,0 l/m 5,8 km/h (2 Bft) S-SW 202 -3,6 C -4,1 C
27.01.2013 07:16 -1,9 C 88 % 1008,6 hPa 0,0 l/m 13,3 km/h (3 Bft) S-SW 202 -3,6 C -6,4 C
27.01.2013 07:21 -1,9 C 88 % 1008,5 hPa 0,0 l/m 9,7 km/h (2 Bft) S 180 -3,6 C -5,5 C
27.01.2013 07:26 -1,9 C 88 % 1008,6 hPa 0,0 l/m 5,8 km/h (2 Bft) W-SW 247 -3,6 C -4,1 C
27.01.2013 07:31 -1,9 C 88 % 1008,7 hPa 0,0 l/m 4,0 km/h (1 Bft) S-SW 202 -3,6 C -1,9 C
27.01.2013 07:36 -1,8 C 88 % 1008,4 hPa 0,0 l/m 4,7 km/h (1 Bft) SW 225 -3,5 C -3,5 C
27.01.2013 07:41 -1,8 C 88 % 1008,5 hPa 0,0 l/m 14,0 km/h (3 Bft) SW 225 -3,5 C -6,4 C
27.01.2013 07:46 -1,8 C 88 % 1008,5 hPa 0,0 l/m 6,8 km/h (2 Bft) S-SW 202 -3,5 C -4,4 C
27.01.2013 07:51 -1,7 C 88 % 1008,2 hPa 0,0 l/m 8,3 km/h (2 Bft) W-SW 247 -3,4 C -4,8 C
27.01.2013 07:56 -1,7 C 88 % 1008,4 hPa 0,0 l/m 4,0 km/h (1 Bft) S-SW 202 -3,4 C -1,7 C
27.01.2013 08:01 -1,7 C 88 % 1008,3 hPa 0,0 l/m 7,6 km/h (2 Bft) S 180 -3,4 C -4,6 C
27.01.2013 08:06 -1,6 C 88 % 1008,4 hPa 0,0 l/m 7,6 km/h (2 Bft) S-SW 202 -3,3 C -4,5 C
27.01.2013 08:11 -1,6 C 88 % 1008,2 hPa 0,0 l/m 11,5 km/h (2 Bft) S-SW 202 -3,3 C -5,6 C
27.01.2013 08:16 -1,6 C 88 % 1008,2 hPa 0,0 l/m 8,3 km/h (2 Bft) S 180 -3,3 C -4,7 C
27.01.2013 08:21 -1,5 C 88 % 1008,2 hPa 0,0 l/m 11,9 km/h (2 Bft) S-SW 202 -3,2 C -5,6 C
27.01.2013 08:26 -1,5 C 88 % 1008,3 hPa 0,0 l/m 11,2 km/h (2 Bft) S 180 -3,2 C -5,4 C
27.01.2013 08:31 -1,5 C 88 % 1008,1 hPa 0,0 l/m 9,7 km/h (2 Bft) S 180 -3,2 C -5,0 C
27.01.2013 08:36 -1,4 C 88 % 1008,1 hPa 0,0 l/m 5,4 km/h (1 Bft) S-SO 157 -3,1 C -3,4 C
27.01.2013 08:41 -1,4 C 88 % 1008,0 hPa 0,0 l/m 8,3 km/h (2 Bft) S 180 -3,1 C -4,5 C
27.01.2013 08:46 -1,3 C 88 % 1007,9 hPa 0,0 l/m 8,3 km/h (2 Bft) W-SW 247 -3,0 C -4,4 C
27.01.2013 08:51 -1,2 C 88 % 1007,9 hPa 0,0 l/m 6,8 km/h (2 Bft) S-SW 202 -2,9 C -3,7 C
27.01.2013 08:56 -1,1 C 88 % 1008,0 hPa 0,0 l/m 17,6 km/h (3 Bft) S 180 -2,8 C -6,2 C
27.01.2013 09:01 -1,1 C 88 % 1007,9 hPa 0,0 l/m 20,2 km/h (4 Bft) S 180 -2,8 C -6,7 C
27.01.2013 09:06 -1,0 C 88 % 1007,9 hPa 0,0 l/m 21,6 km/h (4 Bft) S-SW 202 -2,7 C -6,7 C
27.01.2013 09:11 -0,8 C 88 % 1007,8 hPa 0,0 l/m 7,6 km/h (2 Bft) SW 225 -2,5 C -3,5 C
27.01.2013 09:16 -0,7 C 88 % 1007,8 hPa 0,0 l/m 10,1 km/h (2 Bft) SW 225 -2,4 C -4,2 C
27.01.2013 09:21 -0,6 C 87 % 1007,7 hPa 0,0 l/m 8,3 km/h (2 Bft) S-SW 202 -2,5 C -3,5 C
27.01.2013 09:26 -0,6 C 87 % 1007,6 hPa 0,0 l/m 15,8 km/h (3 Bft) S 180 -2,5 C -5,3 C
27.01.2013 09:31 -0,5 C 87 % 1007,7 hPa 0,0 l/m 10,8 km/h (2 Bft) S-SO 157 -2,4 C -4,1 C
27.01.2013 09:36 -0,4 C 86 % 1007,6 hPa 0,0 l/m 20,2 km/h (4 Bft) S-SW 202 -2,4 C -5,8 C
27.01.2013 09:41 -0,4 C 86 % 1007,5 hPa 0,0 l/m 6,8 km/h (2 Bft) S-SO 157 -2,4 C -2,8 C
27.01.2013 09:46 -0,2 C 86 % 1007,4 hPa 0,0 l/m 8,6 km/h (2 Bft) S-SW 202 -2,3 C -3,2 C
27.01.2013 09:51 -0,2 C 86 % 1007,5 hPa 0,0 l/m 11,9 km/h (2 Bft) SW 225 -2,3 C -4,0 C
27.01.2013 09:56 -0,1 C 86 % 1007,4 hPa 0,0 l/m 5,0 km/h (1 Bft) S-SW 202 -2,2 C -1,7 C
27.01.2013 10:01 -0,1 C 86 % 1007,3 hPa 0,0 l/m 4,3 km/h (1 Bft) S 180 -2,2 C -0,1 C
27.01.2013 10:06 -0,1 C 86 % 1007,4 hPa 0,0 l/m 5,8 km/h (2 Bft) O-SO 112 -2,2 C -2,1 C
27.01.2013 10:11 -0,1 C 86 % 1007,4 hPa 0,0 l/m 9,0 km/h (2 Bft) S-SW 202 -2,2 C -3,2 C
27.01.2013 10:16 -0,1 C 86 % 1007,2 hPa 0,0 l/m 9,4 km/h (2 Bft) S-SW 202 -2,2 C -3,3 C
27.01.2013 10:21 -0,1 C 86 % 1007,3 hPa 0,0 l/m 11,2 km/h (2 Bft) S 180 -2,2 C -3,7 C
27.01.2013 10:26 0,1 C 86 % 1007,3 hPa 0,0 l/m 16,2 km/h (3 Bft) S-SO 157 -2,0 C -4,5 C
27.01.2013 10:31 0,1 C 86 % 1007,2 hPa 0,0 l/m 11,2 km/h (2 Bft) S-SW 202 -2,0 C -3,5 C
27.01.2013 10:36 0,2 C 86 % 1007,1 hPa 0,0 l/m 12,6 km/h (3 Bft) S 180 -1,9 C -3,7 C
27.01.2013 10:41 0,3 C 86 % 1007,0 hPa 0,0 l/m 17,3 km/h (3 Bft) S-SW 202 -1,8 C -4,4 C
27.01.2013 10:46 0,3 C 86 % 1007,0 hPa 0,0 l/m 10,8 km/h (2 Bft) S-SW 202 -1,8 C -3,2 C
27.01.2013 10:51 0,4 C 86 % 1006,9 hPa 0,0 l/m 9,7 km/h (2 Bft) SW 225 -1,7 C -2,8 C
27.01.2013 10:56 0,4 C 85 % 1006,8 hPa 0,0 l/m 8,6 km/h (2 Bft) SW 225 -1,8 C -2,5 C
27.01.2013 11:01 0,6 C 85 % 1006,7 hPa 0,0 l/m 5,0 km/h (1 Bft) S-SO 157 -1,6 C -0,9 C
27.01.2013 11:06 0,6 C 85 % 1006,9 hPa 0,0 l/m 2,2 km/h (1 Bft) SW 225 -1,6 C 0,6 C
27.01.2013 11:11 0,8 C 85 % 1006,8 hPa 0,0 l/m 10,1 km/h (2 Bft) S 180 -1,4 C -2,4 C
27.01.2013 11:16 0,9 C 84 % 1006,8 hPa 0,0 l/m 21,6 km/h (4 Bft) S 180 -1,5 C -4,3 C
27.01.2013 11:21 0,9 C 84 % 1006,7 hPa 0,0 l/m 7,2 km/h (2 Bft) S-SW 202 -1,5 C -1,4 C
27.01.2013 11:26 0,9 C 84 % 1006,5 hPa 0,0 l/m 8,6 km/h (2 Bft) S-SO 157 -1,5 C -1,9 C
27.01.2013 11:31 1,0 C 83 % 1006,4 hPa 0,0 l/m 6,5 km/h (2 Bft) S-SW 202 -1,6 C -1,1 C
27.01.2013 11:36 1,2 C 83 % 1006,3 hPa 0,0 l/m 5,4 km/h (1 Bft) S-SO 157 -1,4 C -0,4 C
27.01.2013 11:41 1,3 C 83 % 1006,1 hPa 0,0 l/m 10,1 km/h (2 Bft) S 180 -1,3 C -1,8 C
27.01.2013 11:46 1,3 C 83 % 1006,0 hPa 0,0 l/m 7,6 km/h (2 Bft) S 180 -1,3 C -1,1 C
27.01.2013 11:51 1,3 C 82 % 1005,9 hPa 0,0 l/m 12,2 km/h (2 Bft) S-SW 202 -1,4 C -2,3 C
27.01.2013 11:56 1,3 C 82 % 1005,7 hPa 0,0 l/m 10,8 km/h (2 Bft) S 180 -1,4 C -2,0 C
27.01.2013 12:01 1,4 C 81 % 1005,6 hPa 0,0 l/m 10,1 km/h (2 Bft) S-SW 202 -1,5 C -1,7 C
27.01.2013 12:06 1,4 C 81 % 1005,2 hPa 0,0 l/m 14,8 km/h (3 Bft) SO 135 -1,5 C -2,7 C
27.01.2013 12:11 1,4 C 81 % 1005,1 hPa 0,0 l/m 5,8 km/h (2 Bft) S 180 -1,5 C -0,3 C
27.01.2013 12:16 1,6 C 82 % 1005,3 hPa 0,0 l/m 9,4 km/h (2 Bft) S-SW 202 -1,1 C -1,3 C
27.01.2013 12:21 1,8 C 81 % 1005,3 hPa 0,0 l/m 8,6 km/h (2 Bft) S-SW 202 -1,1 C -0,8 C
27.01.2013 12:26 1,8 C 81 % 1005,2 hPa 0,0 l/m 7,2 km/h (2 Bft) S-SO 157 -1,1 C -0,4 C
27.01.2013 12:31 1,8 C 80 % 1005,1 hPa 0,0 l/m 5,0 km/h (1 Bft) SO 135 -1,3 C 0,5 C
27.01.2013 12:36 1,8 C 80 % 1004,9 hPa 0,0 l/m 9,0 km/h (2 Bft) S 180 -1,3 C -0,9 C
27.01.2013 12:41 1,8 C 80 % 1005,0 hPa 0,0 l/m 7,6 km/h (2 Bft) S 180 -1,3 C -0,5 C
27.01.2013 12:46 1,8 C 80 % 1004,9 hPa 0,0 l/m 5,8 km/h (2 Bft) S 180 -1,3 C 0,1 C
27.01.2013 12:51 1,8 C 80 % 1004,9 hPa 0,0 l/m 16,2 km/h (3 Bft) W-SW 247 -1,3 C -2,4 C
27.01.2013 12:56 1,7 C 80 % 1004,7 hPa 0,0 l/m 10,4 km/h (2 Bft) S-SW 202 -1,4 C -1,4 C
27.01.2013 13:01 1,6 C 80 % 1004,7 hPa 0,0 l/m 5,8 km/h (2 Bft) S-SO 157 -1,5 C -0,1 C
27.01.2013 13:06 1,6 C 80 % 1004,7 hPa 0,0 l/m 10,4 km/h (2 Bft) S 180 -1,5 C -1,5 C
27.01.2013 13:11 1,5 C 80 % 1004,8 hPa 0,0 l/m 22,3 km/h (4 Bft) S 180 -1,6 C -3,7 C
27.01.2013 13:16 1,5 C 81 % 1004,6 hPa 0,0 l/m 9,0 km/h (2 Bft) S-SO 157 -1,4 C -1,3 C
27.01.2013 13:21 1,5 C 81 % 1004,4 hPa 0,0 l/m 4,7 km/h (1 Bft) S 180 -1,4 C 0,2 C
27.01.2013 13:26 1,5 C 81 % 1004,5 hPa 0,0 l/m 4,7 km/h (1 Bft) SO 135 -1,4 C 0,2 C
27.01.2013 13:31 1,4 C 81 % 1004,6 hPa 0,0 l/m 15,5 km/h (3 Bft) S-SW 202 -1,5 C -2,8 C
27.01.2013 13:36 1,3 C 81 % 1004,5 hPa 0,0 l/m 12,6 km/h (3 Bft) S-SW 202 -1,6 C -2,4 C
27.01.2013 13:41 1,3 C 81 % 1004,3 hPa 0,0 l/m 14,4 km/h (3 Bft) SO 135 -1,6 C -2,7 C
27.01.2013 13:46 1,3 C 82 % 1004,1 hPa 0,0 l/m 9,0 km/h (2 Bft) SO 135 -1,4 C -1,5 C
27.01.2013 13:51 1,3 C 82 % 1004,1 hPa 0,0 l/m 15,8 km/h (3 Bft) S 180 -1,4 C -3,0 C
27.01.2013 13:56 1,2 C 83 % 1004,1 hPa 0,0 l/m 15,5 km/h (3 Bft) S-SW 202 -1,4 C -3,0 C
27.01.2013 14:01 1,1 C 83 % 1004,1 hPa 0,0 l/m 5,4 km/h (1 Bft) S-SO 157 -1,5 C -0,5 C
27.01.2013 14:06 1,1 C 84 % 1004,0 hPa 0,0 l/m 19,1 km/h (3 Bft) SW 225 -1,3 C -3,7 C
27.01.2013 14:11 1,0 C 84 % 1004,2 hPa 0,0 l/m 5,8 km/h (2 Bft) S-SW 202 -1,4 C -0,8 C
27.01.2013 14:16 0,9 C 85 % 1004,0 hPa 0,0 l/m 14,8 km/h (3 Bft) SO 135 -1,3 C -3,3 C
27.01.2013 14:21 0,9 C 85 % 1003,9 hPa 0,0 l/m 10,1 km/h (2 Bft) S 180 -1,3 C -2,3 C
27.01.2013 14:26 0,9 C 85 % 1003,5 hPa 0,0 l/m 18,4 km/h (3 Bft) S-SO 157 -1,3 C -3,9 C
27.01.2013 14:31 0,8 C 86 % 1003,4 hPa 0,0 l/m 4,0 km/h (1 Bft) SW 225 -1,3 C 0,8 C
27.01.2013 14:36 0,8 C 86 % 1003,3 hPa 0,0 l/m 22,7 km/h (4 Bft) S-SW 202 -1,3 C -4,6 C
27.01.2013 14:41 0,8 C 86 % 1003,4 hPa 0,0 l/m 4,0 km/h (1 Bft) S 180 -1,3 C 0,8 C
27.01.2013 14:46 0,8 C 87 % 1003,3 hPa 0,0 l/m 13,7 km/h (3 Bft) S-SO 157 -1,1 C -3,2 C
27.01.2013 14:51 0,8 C 87 % 1003,3 hPa 0,0 l/m 13,3 km/h (3 Bft) S-SO 157 -1,1 C -3,1 C
27.01.2013 14:56 0,7 C 87 % 1003,0 hPa 0,0 l/m 5,8 km/h (2 Bft) O-SO 112 -1,2 C -1,1 C
27.01.2013 15:01 0,8 C 87 % 1002,9 hPa 0,0 l/m 6,1 km/h (2 Bft) S-SO 157 -1,1 C -1,1 C
27.01.2013 15:06 0,8 C 87 % 1002,7 hPa 0,0 l/m 11,2 km/h (2 Bft) SO 135 -1,1 C -2,7 C
27.01.2013 15:11 0,7 C 87 % 1002,7 hPa 0,0 l/m 8,6 km/h (2 Bft) W-SW 247 -1,2 C -2,1 C
27.01.2013 15:16 0,7 C 87 % 1002,8 hPa 0,0 l/m 6,8 km/h (2 Bft) SO 135 -1,2 C -1,5 C
27.01.2013 15:21 0,6 C 88 % 1002,7 hPa 0,0 l/m 5,0 km/h (1 Bft) SW 225 -1,2 C -0,9 C
27.01.2013 15:26 0,7 C 88 % 1002,5 hPa 0,0 l/m 9,7 km/h (2 Bft) S 180 -1,1 C -2,4 C
27.01.2013 15:31 0,7 C 88 % 1002,5 hPa 0,0 l/m 11,9 km/h (2 Bft) SO 135 -1,1 C -2,9 C
27.01.2013 15:36 0,6 C 88 % 1002,6 hPa 0,0 l/m 17,3 km/h (3 Bft) S 180 -1,2 C -4,1 C
27.01.2013 15:41 0,7 C 88 % 1002,4 hPa 0,0 l/m 2,5 km/h (1 Bft) S-SO 157 -1,1 C 0,7 C
27.01.2013 15:46 0,7 C 88 % 1002,3 hPa 0,0 l/m 13,7 km/h (3 Bft) S 180 -1,1 C -3,3 C
27.01.2013 15:51 0,6 C 88 % 1002,3 hPa 0,0 l/m 8,3 km/h (2 Bft) SO 135 -1,2 C -2,1 C
27.01.2013 15:56 0,6 C 88 % 1002,2 hPa 0,0 l/m 9,7 km/h (2 Bft) SO 135 -1,2 C -2,5 C
27.01.2013 16:01 0,6 C 88 % 1002,0 hPa 0,0 l/m 12,2 km/h (2 Bft) SO 135 -1,2 C -3,1 C
27.01.2013 16:06 0,6 C 88 % 1001,9 hPa 0,0 l/m 7,6 km/h (2 Bft) SO 135 -1,2 C -1,9 C
27.01.2013 16:11 0,6 C 89 % 1001,9 hPa 0,0 l/m 10,1 km/h (2 Bft) S 180 -1,0 C -2,6 C
27.01.2013 16:16 0,6 C 89 % 1001,8 hPa 0,0 l/m 12,6 km/h (3 Bft) S-SO 157 -1,0 C -3,2 C
27.01.2013 16:21 0,6 C 89 % 1001,8 hPa 0,0 l/m 9,7 km/h (2 Bft) S-SO 157 -1,0 C -2,5 C
27.01.2013 16:26 0,6 C 89 % 1001,9 hPa 0,0 l/m 8,3 km/h (2 Bft) W-SW 247 -1,0 C -2,1 C
27.01.2013 16:31 0,7 C 89 % 1002,0 hPa 0,0 l/m 5,4 km/h (1 Bft) S 180 -0,9 C -1,0 C
27.01.2013 16:36 0,7 C 89 % 1001,9 hPa 0,0 l/m 10,8 km/h (2 Bft) S-SO 157 -0,9 C -2,7 C
27.01.2013 16:41 0,7 C 89 % 1001,9 hPa 0,0 l/m 10,1 km/h (2 Bft) S-SW 202 -0,9 C -2,5 C
27.01.2013 16:46 0,7 C 89 % 1002,0 hPa 0,0 l/m 17,3 km/h (3 Bft) S 180 -0,9 C -3,9 C
27.01.2013 16:51 0,7 C 89 % 1001,9 hPa 0,0 l/m 9,7 km/h (2 Bft) S-SW 202 -0,9 C -2,4 C
27.01.2013 16:56 0,7 C 89 % 1001,9 hPa 0,0 l/m 6,8 km/h (2 Bft) S-SW 202 -0,9 C -1,5 C
27.01.2013 17:01 0,7 C 89 % 1001,9 hPa 0,0 l/m 11,2 km/h (2 Bft) S-SW 202 -0,9 C -2,8 C
27.01.2013 17:06 0,7 C 89 % 1001,8 hPa 0,0 l/m 5,8 km/h (2 Bft) S-SW 202 -0,9 C -1,1 C
27.01.2013 17:11 0,7 C 89 % 1001,7 hPa 0,0 l/m 9,0 km/h (2 Bft) SO 135 -0,9 C -2,2 C
27.01.2013 17:16 0,7 C 90 % 1001,8 hPa 0,0 l/m 7,6 km/h (2 Bft) SO 135 -0,7 C -1,8 C
27.01.2013 17:21 0,7 C 90 % 1001,6 hPa 0,0 l/m 5,8 km/h (2 Bft) S 180 -0,7 C -1,1 C
27.01.2013 17:26 0,7 C 90 % 1001,6 hPa 0,0 l/m 10,8 km/h (2 Bft) S-SO 157 -0,7 C -2,7 C
27.01.2013 17:31 0,6 C 90 % 1001,6 hPa 0,0 l/m 8,6 km/h (2 Bft) S-SO 157 -0,8 C -2,2 C
27.01.2013 17:36 0,6 C 90 % 1001,6 hPa 0,0 l/m 7,2 km/h (2 Bft) SO 135 -0,8 C -1,8 C
27.01.2013 17:41 0,6 C 90 % 1001,6 hPa 0,0 l/m 3,2 km/h (1 Bft) S-SW 202 -0,8 C 0,6 C
27.01.2013 17:46 0,6 C 91 % 1001,6 hPa 0,0 l/m 13,7 km/h (3 Bft) SO 135 -0,7 C -3,4 C
27.01.2013 17:51 0,6 C 91 % 1001,5 hPa 0,0 l/m 8,3 km/h (2 Bft) S-SW 202 -0,7 C -2,1 C
27.01.2013 17:56 0,6 C 91 % 1001,6 hPa 0,0 l/m 5,0 km/h (1 Bft) S-SO 157 -0,7 C -0,9 C
27.01.2013 18:01 0,6 C 91 % 1001,4 hPa 0,0 l/m 7,2 km/h (2 Bft) S-SO 157 -0,7 C -1,8 C
27.01.2013 18:06 0,6 C 91 % 1001,5 hPa 0,0 l/m 7,6 km/h (2 Bft) S 180 -0,7 C -1,9 C
27.01.2013 18:11 0,6 C 91 % 1001,5 hPa 0,0 l/m 7,9 km/h (2 Bft) S-SO 157 -0,7 C -2,0 C
27.01.2013 18:16 0,6 C 91 % 1001,5 hPa 0,0 l/m 4,7 km/h (1 Bft) SW 225 -0,7 C -0,8 C
27.01.2013 18:21 0,5 C 91 % 1001,5 hPa 0,0 l/m 2,5 km/h (1 Bft) S 180 -0,8 C 0,5 C
27.01.2013 18:26 0,5 C 91 % 1001,6 hPa 0,0 l/m 13,3 km/h (3 Bft) S-SW 202 -0,8 C -3,5 C
27.01.2013 18:31 0,6 C 91 % 1001,6 hPa 0,0 l/m 10,1 km/h (2 Bft) S 180 -0,7 C -2,6 C
27.01.2013 18:36 0,5 C 91 % 1001,5 hPa 0,0 l/m 7,6 km/h (2 Bft) S-SW 202 -0,8 C -2,0 C
27.01.2013 18:41 0,5 C 91 % 1001,5 hPa 0,0 l/m 5,0 km/h (1 Bft) S-SO 157 -0,8 C -1,0 C
27.01.2013 18:46 0,6 C 91 % 1001,4 hPa 0,0 l/m 17,6 km/h (3 Bft) S-SW 202 -0,7 C -4,1 C
27.01.2013 18:51 0,6 C 91 % 1001,4 hPa 0,0 l/m 6,1 km/h (2 Bft) S-SW 202 -0,7 C -1,4 C
27.01.2013 18:56 0,6 C 92 % 1001,6 hPa 0,0 l/m 10,1 km/h (2 Bft) S-SW 202 -0,5 C -2,6 C
27.01.2013 19:01 0,6 C 92 % 1001,6 hPa 0,0 l/m 10,1 km/h (2 Bft) S-SW 202 -0,5 C -2,6 C
27.01.2013 19:06 0,6 C 92 % 1001,5 hPa 0,0 l/m 6,5 km/h (2 Bft) S-SO 157 -0,5 C -1,5 C
27.01.2013 19:11 0,7 C 92 % 1001,5 hPa 0,0 l/m 15,5 km/h (3 Bft) S-SW 202 -0,4 C -3,6 C
27.01.2013 19:16 0,7 C 92 % 1001,6 hPa 0,0 l/m 8,6 km/h (2 Bft) W-SW 247 -0,4 C -2,1 C
27.01.2013 19:21 0,8 C 92 % 1001,6 hPa 0,0 l/m 15,5 km/h (3 Bft) SW 225 -0,3 C -3,5 C
27.01.2013 19:26 0,8 C 92 % 1001,6 hPa 0,0 l/m 5,4 km/h (1 Bft) S 180 -0,3 C -0,9 C
27.01.2013 19:31 0,8 C 92 % 1001,6 hPa 0,0 l/m 14,4 km/h (3 Bft) S 180 -0,3 C -3,3 C
27.01.2013 19:36 0,8 C 92 % 1001,5 hPa 0,0 l/m 6,1 km/h (2 Bft) S-SW 202 -0,3 C -1,1 C
27.01.2013 19:41 0,8 C 92 % 1001,6 hPa 0,0 l/m 4,3 km/h (1 Bft) S-SO 157 -0,3 C 0,8 C
27.01.2013 19:46 0,8 C 92 % 1001,6 hPa 0,0 l/m 2,5 km/h (1 Bft) S-SW 202 -0,3 C 0,8 C
27.01.2013 19:51 0,8 C 92 % 1001,6 hPa 0,0 l/m 9,0 km/h (2 Bft) SW 225 -0,3 C -2,1 C
27.01.2013 19:56 0,9 C 92 % 1001,7 hPa 0,0 l/m 8,3 km/h (2 Bft) S-SW 202 -0,2 C -1,8 C
27.01.2013 20:01 0,9 C 92 % 1001,7 hPa 0,0 l/m 10,1 km/h (2 Bft) SW 225 -0,2 C -2,3 C
27.01.2013 20:06 0,9 C 92 % 1001,8 hPa 0,0 l/m 4,0 km/h (1 Bft) SW 225 -0,2 C 0,9 C
27.01.2013 20:11 0,9 C 92 % 1001,8 hPa 0,0 l/m 7,6 km/h (2 Bft) S-SW 202 -0,2 C -1,6 C
27.01.2013 20:16 0,9 C 92 % 1001,8 hPa 0,0 l/m 9,4 km/h (2 Bft) W 270 -0,2 C -2,1 C
27.01.2013 20:21 1,0 C 92 % 1001,6 hPa 0,0 l/m 10,1 km/h (2 Bft) SW 225 -0,2 C -2,1 C
27.01.2013 20:26 1,0 C 92 % 1001,7 hPa 0,0 l/m 6,8 km/h (2 Bft) SW 225 -0,2 C -1,2 C
27.01.2013 20:31 1,1 C 92 % 1001,7 hPa 0,0 l/m 7,9 km/h (2 Bft) S-SW 202 -0,1 C -1,4 C
27.01.2013 20:36 1,1 C 92 % 1001,7 hPa 0,0 l/m 14,8 km/h (3 Bft) S 180 -0,1 C -3,0 C
27.01.2013 20:41 1,1 C 92 % 1001,7 hPa 0,0 l/m 11,2 km/h (2 Bft) W-SW 247 -0,1 C -2,3 C
27.01.2013 20:46 1,1 C 92 % 1001,7 hPa 0,0 l/m 13,3 km/h (3 Bft) S-SW 202 -0,1 C -2,7 C
27.01.2013 20:51 1,1 C 93 % 1001,8 hPa 0,0 l/m 14,0 km/h (3 Bft) SW 225 0,1 C -2,9 C
27.01.2013 20:56 1,1 C 93 % 1001,8 hPa 0,0 l/m 9,0 km/h (2 Bft) S 180 0,1 C -1,7 C
27.01.2013 21:01 1,1 C 93 % 1001,9 hPa 0,0 l/m 12,2 km/h (2 Bft) W-SW 247 0,1 C -2,5 C
27.01.2013 21:06 1,2 C 93 % 1002,0 hPa 0,0 l/m 9,0 km/h (2 Bft) W-SW 247 0,2 C -1,6 C
27.01.2013 21:11 1,2 C 93 % 1002,0 hPa 0,0 l/m 4,7 km/h (1 Bft) S-SW 202 0,2 C -0,1 C
27.01.2013 21:16 1,2 C 93 % 1002,1 hPa 0,0 l/m 9,0 km/h (2 Bft) W-SW 247 0,2 C -1,6 C
27.01.2013 21:21 1,3 C 93 % 1002,2 hPa 0,0 l/m 3,6 km/h (1 Bft) W-SW 247 0,3 C 1,3 C
27.01.2013 21:26 1,3 C 93 % 1002,1 hPa 0,0 l/m 8,6 km/h (2 Bft) W-SW 247 0,3 C -1,4 C
27.01.2013 21:31 1,3 C 93 % 1002,2 hPa 0,0 l/m 4,3 km/h (1 Bft) S-SW 202 0,3 C 1,3 C
27.01.2013 21:36 1,3 C 93 % 1002,2 hPa 0,0 l/m 9,4 km/h (2 Bft) SW 225 0,3 C -1,6 C
27.01.2013 21:41 1,3 C 93 % 1002,2 hPa 0,0 l/m 11,2 km/h (2 Bft) S-SW 202 0,3 C -2,0 C
27.01.2013 21:46 1,3 C 93 % 1002,2 hPa 0,0 l/m 5,8 km/h (2 Bft) S-SW 202 0,3 C -0,5 C
27.01.2013 21:51 1,3 C 93 % 1002,3 hPa 0,0 l/m 8,3 km/h (2 Bft) SW 225 0,3 C -1,3 C
27.01.2013 21:56 1,3 C 93 % 1002,3 hPa 0,0 l/m 6,1 km/h (2 Bft) S-SW 202 0,3 C -0,6 C
27.01.2013 22:01 1,3 C 93 % 1002,4 hPa 0,0 l/m 4,0 km/h (1 Bft) W-SW 247 0,3 C 1,3 C
27.01.2013 22:06 1,3 C 93 % 1002,5 hPa 0,0 l/m 6,5 km/h (2 Bft) W-SW 247 0,3 C -0,7 C
27.01.2013 22:11 1,3 C 93 % 1002,5 hPa 0,0 l/m 7,9 km/h (2 Bft) S-SW 202 0,3 C -1,2 C
27.01.2013 22:16 1,4 C 93 % 1002,6 hPa 0,0 l/m 8,6 km/h (2 Bft) W-SW 247 0,4 C -1,3 C
27.01.2013 22:21 1,4 C 93 % 1002,8 hPa 0,0 l/m 6,5 km/h (2 Bft) W-SW 247 0,4 C -0,6 C
27.01.2013 22:26 1,5 C 93 % 1003,0 hPa 0,0 l/m 11,9 km/h (2 Bft) W-SW 247 0,5 C -2,0 C
27.01.2013 22:31 1,5 C 93 % 1002,8 hPa 0,0 l/m 19,1 km/h (3 Bft) W-SW 247 0,5 C -3,2 C
27.01.2013 22:36 1,6 C 93 % 1002,9 hPa 0,0 l/m 9,0 km/h (2 Bft) W-SW 247 0,6 C -1,1 C
27.01.2013 22:41 1,6 C 93 % 1003,1 hPa 0,0 l/m 15,1 km/h (3 Bft) W 270 0,6 C -2,5 C
27.01.2013 22:46 1,8 C 93 % 1003,1 hPa 0,0 l/m 8,6 km/h (2 Bft) W-SW 247 0,8 C -0,8 C
27.01.2013 22:51 1,8 C 93 % 1003,4 hPa 0,0 l/m 7,6 km/h (2 Bft) W-SW 247 0,8 C -0,5 C
27.01.2013 22:56 1,8 C 93 % 1003,4 hPa 0,0 l/m 6,8 km/h (2 Bft) SW 225 0,8 C -0,2 C
27.01.2013 23:01 1,8 C 93 % 1003,5 hPa 0,0 l/m 6,5 km/h (2 Bft) W-SW 247 0,8 C -0,1 C
27.01.2013 23:06 1,9 C 93 % 1003,7 hPa 0,0 l/m 13,7 km/h (3 Bft) W-SW 247 0,9 C -1,8 C
27.01.2013 23:11 1,9 C 93 % 1003,9 hPa 0,0 l/m 17,3 km/h (3 Bft) W 270 0,9 C -2,5 C
27.01.2013 23:16 1,9 C 93 % 1003,9 hPa 0,0 l/m 14,4 km/h (3 Bft) W 270 0,9 C -2,0 C
27.01.2013 23:21 1,9 C 93 % 1004,0 hPa 0,0 l/m 11,5 km/h (2 Bft) W-SW 247 0,9 C -1,4 C
27.01.2013 23:26 2,0 C 93 % 1003,8 hPa 0,0 l/m 5,8 km/h (2 Bft) W 270 1,0 C 0,4 C
27.01.2013 23:31 1,9 C 93 % 1003,9 hPa 0,0 l/m 10,1 km/h (2 Bft) W-SW 247 0,9 C -1,1 C
27.01.2013 23:36 1,9 C 93 % 1004,0 hPa 0,0 l/m 7,2 km/h (2 Bft) W-SW 247 0,9 C -0,3 C
27.01.2013 23:41 1,9 C 93 % 1004,0 hPa 0,0 l/m 10,4 km/h (2 Bft) W 270 0,9 C -1,1 C
27.01.2013 23:46 1,9 C 93 % 1004,1 hPa 0,0 l/m 15,5 km/h (3 Bft) W 270 0,9 C -2,2 C
27.01.2013 23:51 1,9 C 93 % 1004,1 hPa 0,0 l/m 11,5 km/h (2 Bft) W 270 0,9 C -1,4 C
27.01.2013 23:56 1,9 C 93 % 1004,2 hPa 0,0 l/m 9,7 km/h (2 Bft) W 270 0,9 C -1,0 C
_ Min-Zeit 00:01 12:31 18:01 - 03:56 - - 00:01 00:46
Minimum _ -3,5 C 80 % 1001,4 hPa - 0,0 km/h (0 Bft) - - -5,0 C -9,4 C
_ Max-Zeit 23:26 20:51 00:21 00:01 14:36 - - 23:26 21:21
Maximum _ 2,0 C 93 % 1010,6 hPa 0,0 l/m 22,7 km/h
S-SW (4 Bft)
- - 1,0 C 1,3 C
Durchschnitt _ -0,3 C 88 % 1005,8 hPa #0,0 l/m 8,6 km/h (2 Bft) S-SW - -2,0 C -2,9 C
(c) by David Heller